createdAt,value
2023-05-05T00:00:39.395Z,8.73
2023-05-05T00:03:06.170Z,9.15
2023-05-05T00:05:32.913Z,10.48
2023-05-05T00:07:59.562Z,10.10
2023-05-05T00:10:26.314Z,9.13
2023-05-05T00:12:53.038Z,9.13
2023-05-05T00:15:19.787Z,7.47
2023-05-05T00:17:46.486Z,6.18
2023-05-05T00:20:13.681Z,8.20
2023-05-05T00:22:40.680Z,8.13
2023-05-05T00:25:07.674Z,7.05
2023-05-05T00:27:34.362Z,5.03
2023-05-05T00:30:00.975Z,6.72
2023-05-05T00:32:27.619Z,6.55
2023-05-05T00:34:54.303Z,8.60
2023-05-05T00:37:21.030Z,11.00
2023-05-05T00:39:47.759Z,9.50
2023-05-05T00:42:14.449Z,6.60
2023-05-05T00:44:41.788Z,7.47
2023-05-05T00:47:12.004Z,8.90
2023-05-05T00:49:38.728Z,12.10
2023-05-05T00:52:06.718Z,9.05
2023-05-05T00:54:36.441Z,7.95
2023-05-05T00:57:03.354Z,6.90
2023-05-05T00:59:30.634Z,7.03
2023-05-05T01:01:57.519Z,8.98
2023-05-05T01:04:25.853Z,7.32
2023-05-05T01:07:14.768Z,6.43
2023-05-05T01:10:04.159Z,6.43
2023-05-05T01:12:51.687Z,8.90
2023-05-05T01:15:36.394Z,7.20
2023-05-05T01:18:04.117Z,7.00
2023-05-05T01:20:40.570Z,6.25
2023-05-05T01:23:07.559Z,9.50
2023-05-05T01:25:46.159Z,8.07
2023-05-05T01:28:35.033Z,9.98
2023-05-05T01:31:41.880Z,7.25
2023-05-05T01:34:09.373Z,6.35
2023-05-05T01:36:40.477Z,7.47
2023-05-05T01:39:07.883Z,9.80
2023-05-05T01:41:45.950Z,8.20
2023-05-05T01:44:13.864Z,8.27
2023-05-05T01:46:40.620Z,8.15
2023-05-05T01:49:07.299Z,16.00
2023-05-05T01:51:33.943Z,9.90
2023-05-05T01:54:01.652Z,7.88
2023-05-05T01:56:28.332Z,11.23
2023-05-05T01:58:55.019Z,9.18
2023-05-05T02:01:22.184Z,11.48
2023-05-05T02:03:49.495Z,10.93
2023-05-05T02:06:16.553Z,6.68
2023-05-05T02:08:43.221Z,7.60
2023-05-05T02:11:10.138Z,3.92
2023-05-05T02:13:36.890Z,3.45
2023-05-05T02:16:04.238Z,4.85
2023-05-05T02:18:33.299Z,4.32
2023-05-05T02:20:59.980Z,5.57
2023-05-05T02:23:26.849Z,3.28
2023-05-05T02:25:55.945Z,4.85
2023-05-05T02:28:28.086Z,6.45
2023-05-05T02:30:57.666Z,7.63
2023-05-05T02:33:24.416Z,8.30
2023-05-05T02:35:51.536Z,11.00
2023-05-05T02:38:18.207Z,7.88
2023-05-05T02:40:46.238Z,7.18
2023-05-05T02:43:15.925Z,8.40
2023-05-05T02:45:42.605Z,9.93
2023-05-05T02:48:10.683Z,7.20
2023-05-05T02:50:37.427Z,9.10
2023-05-05T02:53:04.149Z,6.22
2023-05-05T02:55:39.463Z,4.50
2023-05-05T02:58:16.332Z,8.00
2023-05-05T03:01:02.034Z,7.07
2023-05-05T03:03:34.555Z,7.07
2023-05-05T03:06:06.874Z,11.50
2023-05-05T03:08:48.897Z,8.23
2023-05-05T03:11:27.994Z,7.38
2023-05-05T03:14:18.293Z,8.10
2023-05-05T03:16:45.480Z,6.40
2023-05-05T03:19:13.811Z,8.07
2023-05-05T03:21:40.788Z,6.13
2023-05-05T03:24:14.363Z,6.68
2023-05-05T03:26:41.149Z,5.13
2023-05-05T03:29:07.917Z,9.07
2023-05-05T03:31:34.652Z,9.20
2023-05-05T03:34:01.331Z,8.90
2023-05-05T03:36:29.377Z,6.70
2023-05-05T03:38:56.370Z,7.28
2023-05-05T03:41:23.728Z,5.10
2023-05-05T03:43:51.298Z,11.13
2023-05-05T03:46:18.174Z,10.18
2023-05-05T03:48:45.001Z,11.40
2023-05-05T03:51:12.903Z,12.95
2023-05-05T03:53:39.582Z,15.48
2023-05-05T03:56:06.370Z,11.98
2023-05-05T03:58:33.237Z,14.65
2023-05-05T04:01:04.005Z,12.40
2023-05-05T04:03:31.055Z,12.43
2023-05-05T04:05:57.834Z,11.20
2023-05-05T04:08:24.550Z,13.25
2023-05-05T04:10:51.226Z,13.45
2023-05-05T04:13:18.071Z,22.17
2023-05-05T04:15:46.183Z,16.33
2023-05-05T04:18:12.972Z,15.40
2023-05-05T04:20:39.603Z,19.17
2023-05-05T04:23:06.282Z,18.00
2023-05-05T04:25:32.915Z,22.80
2023-05-05T04:27:59.688Z,21.10
2023-05-05T04:30:26.943Z,18.63
2023-05-05T04:32:53.818Z,19.23
2023-05-05T04:35:21.053Z,22.42
2023-05-05T04:37:47.865Z,21.67
2023-05-05T04:40:14.632Z,24.30
2023-05-05T04:42:41.276Z,21.27
2023-05-05T04:45:09.004Z,27.27
2023-05-05T04:47:39.609Z,25.35
2023-05-05T04:50:07.415Z,25.83
2023-05-05T04:52:34.378Z,17.33
2023-05-05T04:55:01.316Z,19.80
2023-05-05T04:57:28.049Z,23.40
2023-05-05T04:59:54.776Z,16.90
2023-05-05T05:02:21.644Z,21.00
2023-05-05T05:04:48.443Z,15.02
2023-05-05T05:07:15.205Z,21.80
2023-05-05T05:09:41.916Z,15.52
2023-05-05T05:12:09.793Z,17.38
2023-05-05T05:14:39.802Z,21.90
2023-05-05T05:17:06.713Z,15.10
2023-05-05T05:19:33.383Z,19.77
2023-05-05T05:22:00.132Z,20.75
2023-05-05T05:24:26.911Z,29.88
2023-05-05T05:26:53.597Z,21.80
2023-05-05T05:29:20.576Z,29.17
2023-05-05T05:31:47.266Z,25.75
2023-05-05T05:34:13.995Z,20.58
2023-05-05T05:36:40.765Z,9.85
2023-05-05T05:39:07.485Z,11.00
2023-05-05T05:41:34.175Z,8.55
2023-05-05T05:44:01.101Z,8.75
2023-05-05T05:46:27.835Z,8.63
2023-05-05T05:48:54.638Z,10.35
2023-05-05T05:51:21.260Z,8.98
2023-05-05T05:53:48.012Z,8.43
2023-05-05T05:56:14.694Z,10.48
2023-05-05T05:58:42.506Z,10.85
2023-05-05T06:01:09.190Z,14.25
2023-05-05T06:03:36.135Z,11.75
2023-05-05T06:06:02.970Z,14.20
2023-05-05T06:08:29.689Z,6.90
2023-05-05T06:10:56.344Z,10.60
2023-05-05T06:13:23.144Z,8.13
2023-05-05T06:15:49.914Z,12.57
2023-05-05T06:18:16.704Z,16.88
2023-05-05T06:20:46.413Z,14.30
2023-05-05T06:23:13.105Z,15.60
2023-05-05T06:25:39.731Z,15.40
2023-05-05T06:28:06.377Z,10.30
2023-05-05T06:30:33.102Z,9.80
2023-05-05T06:32:59.952Z,11.10
2023-05-05T06:35:26.846Z,11.50
2023-05-05T06:37:53.467Z,6.40
2023-05-05T06:40:20.129Z,10.18
2023-05-05T06:42:46.810Z,22.13
2023-05-05T06:45:13.543Z,16.42
2023-05-05T06:47:40.254Z,16.60
2023-05-05T06:50:08.989Z,13.02
2023-05-05T06:52:35.947Z,8.23
2023-05-05T06:55:03.828Z,9.35
2023-05-05T06:57:30.577Z,9.57
2023-05-05T06:59:57.211Z,7.40
2023-05-05T07:02:25.999Z,5.40
2023-05-05T07:04:55.602Z,8.20
2023-05-05T07:07:22.531Z,6.43
2023-05-05T07:09:49.187Z,9.35
2023-05-05T07:12:15.918Z,8.57
2023-05-05T07:14:42.723Z,9.02
2023-05-05T07:17:09.397Z,10.52
2023-05-05T07:19:36.226Z,11.95
2023-05-05T07:22:03.153Z,11.13
2023-05-05T07:24:29.883Z,27.27
2023-05-05T07:26:57.484Z,59.10
2023-05-05T07:29:24.196Z,11.15
2023-05-05T07:31:51.053Z,10.35
2023-05-05T07:34:17.738Z,11.50
2023-05-05T07:36:44.490Z,12.75
2023-05-05T07:39:11.564Z,11.13
2023-05-05T07:41:38.393Z,10.93
2023-05-05T07:44:05.163Z,11.48
2023-05-05T07:46:31.893Z,11.27
2023-05-05T07:48:58.594Z,10.30
2023-05-05T07:51:25.278Z,10.15
2023-05-05T07:53:52.089Z,9.77
2023-05-05T07:56:19.344Z,7.63
2023-05-05T07:58:47.769Z,7.65
2023-05-05T08:01:14.405Z,8.45
2023-05-05T08:03:41.393Z,8.30
2023-05-05T08:06:09.582Z,7.93
2023-05-05T08:08:36.354Z,9.00
2023-05-05T08:11:03.396Z,9.35
2023-05-05T08:13:32.924Z,8.65
2023-05-05T08:15:59.739Z,10.70
2023-05-05T08:18:26.706Z,7.63
2023-05-05T08:20:54.717Z,8.70
2023-05-05T08:23:21.661Z,10.20
2023-05-05T08:25:48.359Z,13.95
2023-05-05T08:28:15.007Z,12.18
2023-05-05T08:30:42.782Z,8.15
2023-05-05T08:33:09.564Z,9.68
2023-05-05T08:35:36.473Z,8.57
2023-05-05T08:38:03.139Z,7.35
2023-05-05T08:40:32.857Z,8.23
2023-05-05T08:42:59.753Z,8.73
2023-05-05T08:45:26.392Z,7.47
2023-05-05T08:47:53.140Z,12.00
2023-05-05T08:50:19.954Z,10.70
2023-05-05T08:52:47.633Z,9.32
2023-05-05T08:55:22.396Z,9.52
2023-05-05T08:57:54.400Z,10.05
2023-05-05T09:00:21.353Z,6.85
2023-05-05T09:02:48.469Z,8.50
2023-05-05T09:05:15.584Z,12.13
2023-05-05T09:07:43.801Z,9.52
2023-05-05T09:10:11.396Z,9.70
2023-05-05T09:12:40.499Z,11.05
2023-05-05T09:15:16.429Z,10.73
2023-05-05T09:17:43.743Z,7.82
2023-05-05T09:20:11.819Z,7.85
2023-05-05T09:22:42.507Z,7.75
2023-05-05T09:25:10.454Z,7.47
2023-05-05T09:27:49.751Z,9.88
2023-05-05T09:30:17.862Z,9.10
2023-05-05T09:32:46.220Z,7.82
2023-05-05T09:35:13.031Z,7.70
2023-05-05T09:37:39.750Z,10.05
2023-05-05T09:40:07.415Z,10.77
2023-05-05T09:42:34.067Z,7.72
2023-05-05T09:45:01.044Z,9.40
2023-05-05T09:47:37.493Z,7.47
2023-05-05T09:50:04.495Z,8.93
2023-05-05T09:52:32.108Z,10.93
2023-05-05T09:54:58.841Z,10.45
2023-05-05T09:57:33.110Z,9.90
2023-05-05T10:00:01.236Z,9.05
2023-05-05T10:02:32.969Z,9.43
2023-05-05T10:05:06.685Z,10.00
2023-05-05T10:07:33.609Z,8.27
2023-05-05T10:10:00.279Z,6.85
2023-05-05T10:12:27.065Z,8.43
2023-05-05T10:14:53.713Z,8.10
2023-05-05T10:17:21.817Z,9.80
2023-05-05T10:19:49.992Z,6.38
2023-05-05T10:22:16.692Z,7.53
2023-05-05T10:24:45.240Z,5.28
2023-05-05T10:27:19.795Z,4.60
2023-05-05T10:32:54.433Z,7.30
2023-05-05T10:35:24.622Z,7.78
2023-05-05T10:37:51.337Z,5.55
2023-05-05T10:40:18.022Z,6.00
2023-05-05T10:42:44.689Z,6.45
2023-05-05T10:45:11.509Z,6.53
2023-05-05T10:47:38.268Z,7.82
2023-05-05T10:50:14.077Z,5.38
2023-05-05T10:52:47.159Z,5.72
2023-05-05T10:55:36.461Z,7.97
2023-05-05T10:58:03.101Z,6.50
2023-05-05T11:00:38.927Z,6.05
2023-05-05T11:03:17.902Z,5.47
2023-05-05T11:06:03.392Z,8.50
2023-05-05T11:08:36.393Z,6.80
2023-05-05T11:11:03.130Z,9.43
2023-05-05T11:13:29.872Z,6.93
2023-05-05T11:15:57.254Z,6.30
2023-05-05T11:18:36.443Z,5.00
2023-05-05T11:21:08.982Z,6.90
2023-05-05T11:23:35.867Z,6.05
2023-05-05T11:26:02.568Z,6.75
2023-05-05T11:28:31.177Z,8.50
2023-05-05T11:30:58.744Z,7.55
2023-05-05T11:33:32.950Z,8.48
2023-05-05T11:36:06.111Z,7.25
2023-05-05T11:38:36.088Z,4.15
2023-05-05T11:41:30.722Z,14.45
2023-05-05T11:44:13.196Z,9.05
2023-05-05T11:46:41.073Z,8.20
2023-05-05T11:49:09.236Z,7.40
2023-05-05T11:51:36.049Z,6.55
2023-05-05T11:54:02.832Z,7.50
2023-05-05T11:56:29.525Z,12.45
2023-05-05T11:59:11.686Z,16.88
2023-05-05T12:01:41.527Z,11.60
2023-05-05T12:04:15.231Z,9.25
2023-05-05T12:06:42.320Z,10.82
2023-05-05T12:09:29.288Z,5.78
2023-05-05T12:11:58.035Z,6.85
2023-05-05T12:14:25.166Z,10.88
2023-05-05T12:16:58.679Z,5.80
2023-05-05T12:19:30.169Z,11.70
2023-05-05T12:21:57.037Z,4.03
2023-05-05T12:24:23.815Z,5.10
2023-05-05T12:26:50.502Z,3.90
2023-05-05T12:29:28.847Z,4.40
2023-05-05T12:31:55.878Z,7.28
2023-05-05T12:34:23.282Z,4.10
2023-05-05T12:36:49.978Z,3.33
2023-05-05T12:39:16.721Z,7.05
2023-05-05T12:41:43.435Z,5.78
2023-05-05T12:44:10.280Z,8.30
2023-05-05T12:46:46.691Z,5.32
2023-05-05T12:49:13.455Z,4.85
2023-05-05T12:51:55.135Z,7.10
2023-05-05T12:54:24.515Z,9.98
2023-05-05T12:56:51.384Z,5.78
2023-05-05T12:59:20.970Z,6.10
2023-05-05T13:02:06.079Z,7.35
2023-05-05T13:04:32.838Z,5.85
2023-05-05T13:07:11.227Z,15.32
2023-05-05T13:09:37.939Z,8.20
2023-05-05T13:12:05.056Z,7.65
2023-05-05T13:14:31.987Z,7.72
2023-05-05T13:16:58.818Z,9.40
2023-05-05T13:19:25.501Z,11.25
2023-05-05T13:21:52.806Z,6.30
2023-05-05T13:24:28.776Z,7.78
2023-05-05T13:27:05.280Z,5.13
2023-05-05T13:29:32.175Z,5.65
2023-05-05T13:31:58.938Z,5.85
2023-05-05T13:34:25.976Z,4.63
2023-05-05T13:36:52.675Z,8.63
2023-05-05T13:39:19.356Z,5.65
2023-05-05T13:41:46.143Z,4.30
2023-05-05T13:44:13.936Z,6.88
2023-05-05T13:46:44.038Z,11.50
2023-05-05T13:49:11.378Z,5.40
2023-05-05T13:51:38.948Z,5.15
2023-05-05T13:54:06.580Z,6.45
2023-05-05T13:56:33.892Z,7.93
2023-05-05T13:59:01.023Z,7.00
2023-05-05T14:01:27.744Z,5.63
2023-05-05T14:03:56.912Z,5.72
2023-05-05T14:06:24.057Z,6.35
2023-05-05T14:08:51.703Z,5.00
2023-05-05T14:11:18.531Z,5.82
2023-05-05T14:13:46.530Z,3.25
2023-05-05T14:16:13.459Z,3.92
2023-05-05T14:18:40.246Z,3.72
2023-05-05T14:21:06.996Z,4.82
2023-05-05T14:23:33.725Z,6.80
2023-05-05T14:26:00.810Z,7.38
2023-05-05T14:28:27.431Z,8.90
2023-05-05T14:30:54.095Z,13.43
2023-05-05T14:33:20.742Z,7.65
2023-05-05T14:35:47.399Z,8.02
2023-05-05T14:38:14.161Z,12.77
2023-05-05T14:40:41.075Z,11.88
2023-05-05T14:43:07.821Z,9.18
2023-05-05T14:45:34.586Z,5.55
2023-05-05T14:48:01.378Z,12.30
2023-05-05T14:50:28.058Z,7.28
2023-05-05T14:52:54.764Z,7.43
2023-05-05T14:55:21.470Z,10.00
2023-05-05T14:57:48.151Z,6.53
2023-05-05T15:00:15.142Z,8.50
2023-05-05T15:02:41.943Z,7.22
2023-05-05T15:05:09.055Z,9.23
2023-05-05T15:07:35.874Z,5.00
2023-05-05T15:10:02.671Z,5.47
2023-05-05T15:12:29.336Z,4.05
2023-05-05T15:14:55.956Z,6.68
2023-05-05T15:17:22.771Z,13.25
2023-05-05T15:19:49.527Z,18.58
2023-05-05T15:22:16.197Z,24.92
2023-05-05T15:24:42.861Z,16.77
2023-05-05T15:27:09.530Z,17.77
2023-05-05T15:29:36.192Z,13.75
2023-05-05T15:32:02.922Z,11.05
2023-05-05T15:34:29.633Z,10.50
2023-05-05T15:36:56.840Z,7.40
2023-05-05T15:39:23.521Z,11.57
2023-05-05T15:41:50.147Z,6.03
2023-05-05T15:44:17.270Z,11.07
2023-05-05T15:46:44.000Z,15.00
2023-05-05T15:49:10.761Z,8.43
2023-05-05T15:51:37.572Z,9.65
2023-05-05T15:54:04.476Z,7.82
2023-05-05T15:56:31.140Z,9.77
2023-05-05T15:58:57.791Z,8.63
2023-05-05T16:01:24.509Z,9.35
2023-05-05T16:03:51.898Z,7.80
2023-05-05T16:06:18.628Z,8.93
2023-05-05T16:08:47.762Z,10.02
2023-05-05T16:11:14.467Z,10.52
2023-05-05T16:13:42.541Z,10.63
2023-05-05T16:16:09.319Z,11.35
2023-05-05T16:18:36.260Z,9.13
2023-05-05T16:21:02.959Z,7.60
2023-05-05T16:23:29.639Z,6.25
2023-05-05T16:25:56.349Z,11.15
2023-05-05T16:28:23.002Z,10.60
2023-05-05T16:30:49.757Z,13.88
2023-05-05T16:33:16.432Z,11.30
2023-05-05T16:35:46.350Z,11.68
2023-05-05T16:38:13.565Z,13.48
2023-05-05T16:40:40.349Z,8.13
2023-05-05T16:43:06.996Z,12.98
2023-05-05T16:45:33.719Z,16.60
2023-05-05T16:48:00.358Z,12.95
2023-05-05T16:50:27.103Z,11.70
2023-05-05T16:52:53.879Z,19.92
2023-05-05T16:55:20.682Z,19.38
2023-05-05T16:57:47.987Z,15.80
2023-05-05T17:00:15.620Z,22.23
2023-05-05T17:02:42.359Z,9.30
2023-05-05T17:05:09.842Z,7.55
2023-05-05T17:07:36.728Z,3.65
2023-05-05T17:10:03.524Z,6.07
2023-05-05T17:12:30.332Z,4.40
2023-05-05T17:14:57.049Z,4.53
2023-05-05T17:17:23.718Z,4.63
2023-05-05T17:19:50.503Z,4.10
2023-05-05T17:22:17.156Z,6.07
2023-05-05T17:24:43.764Z,5.85
2023-05-05T17:27:10.716Z,5.90
2023-05-05T17:29:40.872Z,5.18
2023-05-05T17:32:11.005Z,7.00
2023-05-05T17:34:37.780Z,9.27
2023-05-05T17:37:04.800Z,4.95
2023-05-05T17:39:31.460Z,4.28
2023-05-05T17:41:58.089Z,8.20
2023-05-05T17:44:24.764Z,9.10
2023-05-05T17:46:51.454Z,6.97
2023-05-05T17:49:18.172Z,11.20
2023-05-05T17:51:44.831Z,9.35
2023-05-05T17:54:11.603Z,6.00
2023-05-05T17:56:38.424Z,8.63
2023-05-05T17:59:05.112Z,7.10
2023-05-05T18:01:31.908Z,8.02
2023-05-05T18:03:58.649Z,8.65
2023-05-05T18:06:25.818Z,7.97
2023-05-05T18:08:52.860Z,11.18
2023-05-05T18:11:21.293Z,11.10
2023-05-05T18:16:14.546Z,11.15
2023-05-05T18:18:41.714Z,8.48
2023-05-05T18:21:12.276Z,11.05
2023-05-05T18:23:39.890Z,8.57
2023-05-05T18:26:06.750Z,12.05
2023-05-05T18:28:33.483Z,13.95
2023-05-05T18:31:00.307Z,10.38
2023-05-05T18:33:27.103Z,11.15
2023-05-05T18:35:53.877Z,14.05
2023-05-05T18:38:21.508Z,12.30
2023-05-05T18:40:48.400Z,12.13
2023-05-05T18:43:15.126Z,13.02
2023-05-05T18:45:42.024Z,12.98
2023-05-05T18:48:08.845Z,12.90
2023-05-05T18:50:37.212Z,14.63
2023-05-05T18:53:04.387Z,10.65
2023-05-05T18:55:31.270Z,11.13
2023-05-05T18:57:58.122Z,14.52
2023-05-05T19:00:24.733Z,12.40
2023-05-05T19:02:51.553Z,14.73
2023-05-05T19:05:18.360Z,12.52
2023-05-05T19:07:45.527Z,9.77
2023-05-05T19:10:12.244Z,14.50
2023-05-05T19:12:39.054Z,18.92
2023-05-05T19:15:06.844Z,17.15
2023-05-05T19:17:33.964Z,14.93
2023-05-05T19:20:00.705Z,14.57
2023-05-05T19:22:27.419Z,20.00
2023-05-05T19:24:54.087Z,16.00
2023-05-05T19:27:21.610Z,21.27
2023-05-05T19:29:52.247Z,18.63
2023-05-05T19:32:19.567Z,20.23
2023-05-05T19:34:46.647Z,19.20
2023-05-05T19:37:13.315Z,15.43
2023-05-05T19:39:40.013Z,16.38
2023-05-05T19:42:07.180Z,15.32
2023-05-05T19:44:33.853Z,13.93
2023-05-05T19:47:00.531Z,14.18
2023-05-05T19:49:27.282Z,15.07
2023-05-05T19:51:54.502Z,39.35
2023-05-05T19:54:21.426Z,17.85
2023-05-05T19:56:48.152Z,19.00
2023-05-05T19:59:14.824Z,15.45
2023-05-05T20:01:41.677Z,13.13
2023-05-05T20:04:08.437Z,12.98
2023-05-05T20:06:36.371Z,7.97
2023-05-05T20:09:03.663Z,10.85
2023-05-05T20:11:30.447Z,11.13
2023-05-05T20:13:57.340Z,10.10
2023-05-05T20:16:23.977Z,7.97
2023-05-05T20:18:51.990Z,10.68
2023-05-05T20:21:18.655Z,7.75
2023-05-05T20:23:45.950Z,13.48
2023-05-05T20:26:12.684Z,12.85
2023-05-05T20:28:40.939Z,8.15
2023-05-05T20:31:09.497Z,15.30
2023-05-05T20:33:36.199Z,5.78
2023-05-05T20:36:02.864Z,7.65
2023-05-05T20:38:29.557Z,8.20
2023-05-05T20:40:56.425Z,9.00
2023-05-05T20:43:24.103Z,8.10
2023-05-05T20:45:51.682Z,7.40
2023-05-05T20:48:18.386Z,8.25
2023-05-05T20:50:45.148Z,8.15
2023-05-05T20:53:13.873Z,10.90
2023-05-05T20:55:40.769Z,12.85
2023-05-05T20:58:07.558Z,12.38
2023-05-05T21:00:34.315Z,12.75
2023-05-05T21:03:02.785Z,14.65
2023-05-05T21:07:57.325Z,9.15
2023-05-05T21:10:25.250Z,11.15
2023-05-05T21:12:52.016Z,12.60
2023-05-05T21:15:18.777Z,11.45
2023-05-05T21:17:45.553Z,10.88
2023-05-05T21:20:12.831Z,10.63
2023-05-05T21:22:39.715Z,10.18
2023-05-05T21:25:21.939Z,5.63
2023-05-05T21:27:48.765Z,5.38
2023-05-05T21:30:15.905Z,5.47
2023-05-05T21:32:43.098Z,5.60
2023-05-05T21:35:10.223Z,4.55
2023-05-05T21:37:37.798Z,4.82
2023-05-05T21:40:06.030Z,8.15
2023-05-05T21:42:32.688Z,8.63
2023-05-05T21:44:59.351Z,11.40
2023-05-05T21:47:26.046Z,10.70
2023-05-05T21:49:52.760Z,10.30
2023-05-05T21:52:19.471Z,13.52
2023-05-05T21:54:46.227Z,11.90
2023-05-05T21:57:12.861Z,9.18
2023-05-05T21:59:39.532Z,7.85
2023-05-05T22:02:06.183Z,10.82
2023-05-05T22:04:32.864Z,8.43
2023-05-05T22:06:59.560Z,9.63
2023-05-05T22:09:26.310Z,12.98
2023-05-05T22:11:52.992Z,5.63
2023-05-05T22:14:19.671Z,5.38
2023-05-05T22:16:46.387Z,6.32
2023-05-05T22:19:13.040Z,9.52
2023-05-05T22:21:39.741Z,14.32
2023-05-05T22:24:07.352Z,16.30
2023-05-05T22:26:34.058Z,12.60
2023-05-05T22:29:00.937Z,14.02
2023-05-05T22:31:27.938Z,15.25
2023-05-05T22:33:54.643Z,12.50
2023-05-05T22:36:21.790Z,10.15
2023-05-05T22:38:48.521Z,11.13
2023-05-05T22:41:15.963Z,13.88
2023-05-05T22:43:42.658Z,17.48
2023-05-05T22:46:09.352Z,17.48
2023-05-05T22:48:36.031Z,14.63
2023-05-05T22:51:03.489Z,14.70
2023-05-05T22:53:30.239Z,17.27
2023-05-05T22:55:58.409Z,18.48
2023-05-05T22:58:25.819Z,17.88
2023-05-05T23:00:52.673Z,7.78
2023-05-05T23:03:19.433Z,8.15
2023-05-05T23:05:46.222Z,5.20
2023-05-05T23:08:12.876Z,3.50
2023-05-05T23:10:39.549Z,5.65
2023-05-05T23:13:06.320Z,2.95
2023-05-05T23:15:33.058Z,4.20
2023-05-05T23:17:59.775Z,5.30
2023-05-05T23:20:26.584Z,4.70
2023-05-05T23:22:53.463Z,8.05
2023-05-05T23:25:20.136Z,7.65
2023-05-05T23:27:48.054Z,8.98
2023-05-05T23:30:14.959Z,11.27
2023-05-05T23:32:42.805Z,15.35
2023-05-05T23:35:09.957Z,10.38
2023-05-05T23:37:36.844Z,11.63
2023-05-05T23:40:03.895Z,16.80
2023-05-05T23:42:30.656Z,15.85
2023-05-05T23:44:57.410Z,12.45
2023-05-05T23:47:24.089Z,10.88
2023-05-05T23:49:50.778Z,8.40
2023-05-05T23:52:17.445Z,3.63
2023-05-05T23:54:44.810Z,4.13
2023-05-05T23:57:11.494Z,10.60
2023-05-05T23:59:41.738Z,10.18
